createdAt,value
2022-09-03T00:00:07.640Z,92.60
2022-09-03T00:03:11.091Z,92.50
2022-09-03T00:05:51.719Z,92.40
2022-09-03T00:08:38.002Z,92.00
2022-09-03T00:11:25.608Z,91.70
2022-09-03T00:14:06.461Z,91.60
2022-09-03T00:17:05.976Z,91.70
2022-09-03T00:19:46.095Z,91.90
2022-09-03T00:22:34.097Z,91.70
2022-09-03T00:25:14.274Z,92.20
2022-09-03T00:27:51.152Z,92.30
2022-09-03T00:30:24.321Z,91.70
2022-09-03T00:33:07.070Z,91.60
2022-09-03T00:35:51.250Z,91.40
2022-09-03T00:38:22.427Z,91.90
2022-09-03T00:41:17.475Z,91.90
2022-09-03T00:44:06.832Z,92.10
2022-09-03T00:47:13.802Z,92.20
2022-09-03T00:50:13.405Z,92.50
2022-09-03T00:53:33.745Z,92.40
2022-09-03T00:56:11.258Z,92.50
2022-09-03T00:59:10.932Z,92.30
2022-09-03T01:02:07.396Z,92.30
2022-09-03T01:04:51.636Z,92.80
2022-09-03T01:07:33.060Z,92.70
2022-09-03T01:10:09.947Z,92.80
2022-09-03T01:13:33.135Z,92.90
2022-09-03T01:16:55.170Z,93.00
2022-09-03T01:19:55.967Z,92.80
2022-09-03T01:23:04.094Z,93.20
2022-09-03T01:26:17.165Z,93.70
2022-09-03T01:29:25.355Z,93.60
2022-09-03T01:32:29.580Z,93.70
2022-09-03T01:35:28.113Z,93.90
2022-09-03T01:38:23.168Z,93.70
2022-09-03T01:42:27.879Z,93.90
2022-09-03T01:45:51.075Z,94.50
2022-09-03T01:48:46.562Z,94.70
2022-09-03T01:51:28.038Z,94.30
2022-09-03T01:54:31.442Z,94.00
2022-09-03T01:57:42.000Z,94.30
2022-09-03T02:00:23.174Z,94.30
2022-09-03T02:02:54.483Z,94.30
2022-09-03T02:05:29.229Z,94.40
2022-09-03T02:08:08.266Z,94.50
2022-09-03T02:10:49.498Z,94.50
2022-09-03T02:13:45.112Z,94.70
2022-09-03T02:16:32.059Z,94.80
2022-09-03T02:19:12.540Z,94.60
2022-09-03T02:21:53.493Z,95.00
2022-09-03T02:24:26.420Z,95.00
2022-09-03T02:26:57.493Z,95.00
2022-09-03T02:29:28.481Z,95.10
2022-09-03T02:31:59.458Z,95.30
2022-09-03T02:34:30.725Z,95.00
2022-09-03T02:37:14.176Z,95.00
2022-09-03T02:39:45.263Z,95.20
2022-09-03T02:42:16.258Z,95.50
2022-09-03T02:44:53.895Z,95.50
2022-09-03T02:47:32.064Z,95.50
2022-09-03T02:50:03.065Z,96.00
2022-09-03T02:52:33.984Z,95.70
2022-09-03T02:55:05.445Z,95.80
2022-09-03T02:57:36.644Z,95.90
2022-09-03T03:00:09.084Z,96.10
2022-09-03T03:02:40.198Z,96.40
2022-09-03T03:05:22.348Z,96.30
2022-09-03T03:07:53.324Z,96.50
2022-09-03T03:10:24.217Z,96.70
2022-09-03T03:12:55.348Z,96.80
2022-09-03T03:15:26.204Z,96.80
2022-09-03T03:17:57.831Z,97.00
2022-09-03T03:20:29.164Z,97.30
2022-09-03T03:23:02.467Z,97.30
2022-09-03T03:25:35.373Z,97.70
2022-09-03T03:28:07.715Z,97.70
2022-09-03T03:30:40.323Z,97.70
2022-09-03T03:33:11.462Z,97.80
2022-09-03T03:35:42.770Z,98.20
2022-09-03T03:38:13.682Z,97.90
2022-09-03T03:40:44.523Z,97.60
2022-09-03T03:43:15.410Z,97.70
2022-09-03T03:45:57.843Z,97.50
2022-09-03T03:48:28.778Z,97.70
2022-09-03T03:51:07.446Z,98.10
2022-09-03T03:53:39.127Z,98.30
2022-09-03T03:56:13.856Z,98.60
2022-09-03T03:58:45.263Z,99.00
2022-09-03T04:01:27.415Z,99.10
2022-09-03T04:04:00.363Z,99.20
2022-09-03T04:06:31.528Z,99.40
2022-09-03T04:09:02.403Z,99.30
2022-09-03T04:11:33.280Z,99.20
2022-09-03T04:14:04.280Z,99.20
2022-09-03T04:16:35.400Z,99.30
2022-09-03T04:19:06.322Z,99.50
2022-09-03T04:21:37.172Z,99.70
2022-09-03T04:24:08.146Z,99.80
2022-09-03T04:26:40.659Z,99.90
2022-09-03T04:29:11.635Z,99.90
2022-09-03T04:32:05.063Z,99.90
2022-09-03T04:34:35.958Z,99.90
2022-09-03T04:37:06.815Z,99.90
2022-09-03T04:39:37.737Z,99.90
2022-09-03T04:42:08.631Z,99.90
2022-09-03T04:44:41.141Z,99.90
2022-09-03T04:47:12.022Z,99.70
2022-09-03T04:49:42.891Z,99.80
2022-09-03T04:52:13.825Z,99.70
2022-09-03T04:54:44.771Z,99.60
2022-09-03T04:57:15.757Z,99.50
2022-09-03T04:59:47.176Z,99.30
2022-09-03T05:02:18.066Z,99.70
2022-09-03T05:04:49.092Z,99.90
2022-09-03T05:07:21.030Z,99.70
2022-09-03T05:09:53.424Z,99.80
2022-09-03T05:12:24.267Z,99.50
2022-09-03T05:14:55.122Z,99.70
2022-09-03T05:17:27.194Z,99.90
2022-09-03T05:19:58.189Z,99.70
2022-09-03T05:22:29.062Z,99.90
2022-09-03T05:24:59.960Z,99.90
2022-09-03T05:27:31.928Z,99.90
2022-09-03T05:30:02.973Z,99.90
2022-09-03T05:32:34.415Z,99.90
2022-09-03T05:35:06.661Z,99.90
2022-09-03T05:37:38.165Z,99.80
2022-09-03T05:40:11.433Z,99.50
2022-09-03T05:42:42.297Z,99.60
2022-09-03T05:45:13.474Z,99.30
2022-09-03T05:47:44.311Z,99.30
2022-09-03T05:50:15.261Z,99.20
2022-09-03T05:52:46.182Z,99.90
2022-09-03T05:55:17.188Z,99.90
2022-09-03T05:57:53.435Z,99.90
2022-09-03T06:00:24.336Z,99.90
2022-09-03T06:02:55.503Z,99.60
2022-09-03T06:05:26.464Z,99.90
2022-09-03T06:07:57.389Z,99.90
2022-09-03T06:10:36.480Z,99.90
2022-09-03T06:13:11.448Z,99.80
2022-09-03T06:15:42.434Z,99.70
2022-09-03T06:18:13.331Z,99.20
2022-09-03T06:20:44.214Z,98.90
2022-09-03T06:23:15.078Z,98.90
2022-09-03T06:25:46.007Z,99.30
2022-09-03T06:28:16.872Z,98.90
2022-09-03T06:30:58.348Z,98.50
2022-09-03T06:33:31.562Z,98.70
2022-09-03T06:36:08.653Z,99.10
2022-09-03T06:38:40.838Z,98.90
2022-09-03T06:41:26.064Z,98.60
2022-09-03T06:44:06.402Z,98.70
2022-09-03T06:46:40.169Z,98.90
2022-09-03T06:49:12.098Z,98.90
2022-09-03T06:51:44.061Z,98.90
2022-09-03T06:54:15.879Z,99.00
2022-09-03T06:56:47.226Z,99.70
2022-09-03T06:59:18.246Z,99.00
2022-09-03T07:01:49.564Z,98.90
2022-09-03T07:04:21.758Z,98.80
2022-09-03T07:06:52.657Z,98.60
2022-09-03T07:09:23.520Z,98.40
2022-09-03T07:11:55.361Z,98.50
2022-09-03T07:14:26.712Z,98.50
2022-09-03T07:16:59.020Z,98.50
2022-09-03T07:19:33.439Z,98.70
2022-09-03T07:22:05.071Z,98.60
2022-09-03T07:24:37.758Z,98.90
2022-09-03T07:27:11.844Z,98.80
2022-09-03T07:29:46.246Z,98.80
2022-09-03T07:32:17.303Z,98.50
2022-09-03T07:34:48.730Z,98.40
2022-09-03T07:37:27.297Z,98.40
2022-09-03T07:39:58.327Z,98.40
2022-09-03T07:42:31.065Z,98.50
2022-09-03T07:45:05.518Z,98.40
2022-09-03T07:47:37.240Z,98.60
2022-09-03T07:50:08.543Z,98.80
2022-09-03T07:52:39.377Z,98.80
2022-09-03T07:55:10.962Z,98.80
2022-09-03T07:57:41.835Z,98.60
2022-09-03T08:00:14.456Z,98.30
2022-09-03T08:02:46.413Z,98.30
2022-09-03T08:05:20.412Z,98.30
2022-09-03T08:07:51.585Z,98.00
2022-09-03T08:10:22.774Z,98.40
2022-09-03T08:12:54.076Z,98.40
2022-09-03T08:15:26.441Z,98.40
2022-09-03T08:18:03.461Z,98.50
2022-09-03T08:20:37.796Z,98.70
2022-09-03T08:23:08.832Z,98.80
2022-09-03T08:25:39.673Z,98.60
2022-09-03T08:28:10.682Z,98.60
2022-09-03T08:30:41.524Z,98.50
2022-09-03T08:33:12.392Z,98.50
2022-09-03T08:35:43.242Z,98.30
2022-09-03T08:38:14.685Z,97.80
2022-09-03T08:40:45.720Z,97.80
2022-09-03T08:43:18.988Z,97.60
2022-09-03T08:45:49.901Z,97.70
2022-09-03T08:48:26.064Z,97.40
2022-09-03T08:51:03.832Z,97.30
2022-09-03T08:53:45.337Z,97.40
2022-09-03T08:56:27.968Z,97.00
2022-09-03T08:59:01.564Z,96.60
2022-09-03T09:01:53.039Z,96.60
2022-09-03T09:05:23.911Z,96.50
2022-09-03T09:08:13.057Z,96.60
2022-09-03T09:11:05.678Z,96.80
2022-09-03T09:13:58.366Z,96.90
2022-09-03T09:16:40.619Z,96.70
2022-09-03T09:19:49.987Z,96.60
2022-09-03T09:22:35.344Z,96.70
2022-09-03T09:25:19.507Z,96.40
2022-09-03T09:28:13.467Z,96.80
2022-09-03T09:30:47.889Z,96.80
2022-09-03T09:33:20.864Z,96.90
2022-09-03T09:35:51.784Z,97.00
2022-09-03T09:38:36.448Z,97.10
2022-09-03T09:41:20.098Z,97.20
2022-09-03T09:44:02.325Z,97.10
2022-09-03T09:46:41.194Z,96.90
2022-09-03T09:49:33.509Z,96.30
2022-09-03T09:52:12.221Z,96.10
2022-09-03T09:54:48.482Z,95.90
2022-09-03T09:57:25.521Z,96.00
2022-09-03T10:00:11.439Z,95.90
2022-09-03T10:02:56.702Z,95.30
2022-09-03T10:05:33.662Z,95.50
2022-09-03T10:08:18.521Z,95.80
2022-09-03T10:10:51.710Z,95.80
2022-09-03T10:13:30.957Z,95.70
2022-09-03T10:16:14.367Z,96.10
2022-09-03T10:19:30.721Z,95.90
2022-09-03T10:22:11.364Z,95.90
2022-09-03T10:24:51.622Z,95.80
2022-09-03T10:27:24.118Z,95.80
2022-09-03T10:29:55.094Z,95.50
2022-09-03T10:33:15.679Z,95.70
2022-09-03T10:35:54.199Z,95.50
2022-09-03T10:38:38.033Z,95.00
2022-09-03T10:42:07.690Z,94.40
2022-09-03T10:44:58.306Z,94.90
2022-09-03T10:47:44.290Z,94.60
2022-09-03T10:50:26.444Z,94.60
2022-09-03T10:53:08.863Z,94.60
2022-09-03T10:56:06.969Z,94.80
2022-09-03T10:59:19.259Z,94.90
2022-09-03T11:01:53.886Z,94.90
2022-09-03T11:05:26.815Z,94.50
2022-09-03T11:08:06.998Z,94.00
2022-09-03T11:10:50.214Z,92.90
2022-09-03T11:13:41.152Z,93.20
2022-09-03T11:16:27.193Z,93.00
2022-09-03T11:19:05.571Z,93.10
2022-09-03T11:21:39.060Z,93.20
2022-09-03T11:24:27.296Z,93.40
2022-09-03T11:27:31.244Z,93.30
2022-09-03T11:30:09.746Z,93.80
2022-09-03T11:32:46.683Z,94.20
2022-09-03T11:35:34.020Z,94.80
2022-09-03T11:38:31.103Z,93.90
2022-09-03T11:41:25.994Z,94.00
2022-09-03T11:43:59.099Z,94.40
2022-09-03T11:46:33.764Z,94.30
2022-09-03T11:49:13.553Z,94.20
2022-09-03T11:51:45.027Z,93.70
2022-09-03T11:54:23.868Z,93.70
2022-09-03T11:57:11.767Z,93.90
2022-09-03T11:59:44.540Z,93.80
2022-09-03T12:02:29.998Z,94.20
2022-09-03T12:05:14.803Z,94.20
2022-09-03T12:08:22.071Z,94.60
2022-09-03T12:11:30.461Z,94.80
2022-09-03T12:14:25.907Z,94.70
2022-09-03T12:17:15.416Z,94.60
2022-09-03T12:19:58.040Z,94.80
2022-09-03T12:22:31.317Z,95.30
2022-09-03T12:25:15.372Z,95.50
2022-09-03T12:27:46.887Z,95.70
2022-09-03T12:30:22.926Z,96.30
2022-09-03T12:33:06.508Z,96.30
2022-09-03T12:38:40.530Z,96.90
2022-09-03T12:41:31.065Z,97.30
2022-09-03T12:44:02.411Z,97.70
2022-09-03T12:46:34.566Z,98.50
2022-09-03T12:52:06.516Z,99.90
2022-09-03T12:55:09.074Z,99.90
2022-09-03T12:57:49.119Z,99.90
2022-09-03T13:00:20.270Z,99.90
2022-09-03T13:03:18.884Z,99.90
2022-09-03T13:06:08.479Z,99.90
2022-09-03T13:08:52.654Z,99.90
2022-09-03T13:11:25.595Z,99.90
2022-09-03T13:14:12.436Z,99.90
2022-09-03T13:16:46.345Z,99.90
2022-09-03T13:19:32.545Z,99.90
2022-09-03T13:22:11.911Z,99.90
2022-09-03T13:24:58.379Z,99.90
2022-09-03T13:28:08.162Z,99.90
2022-09-03T13:31:35.522Z,99.90
2022-09-03T13:34:15.907Z,99.90
2022-09-03T13:36:50.309Z,99.90
2022-09-03T13:39:31.048Z,99.90
2022-09-03T13:42:32.005Z,99.90
2022-09-03T13:45:50.433Z,99.90
2022-09-03T13:48:49.341Z,99.90
2022-09-03T13:51:29.951Z,99.90
2022-09-03T13:54:47.721Z,99.90
2022-09-03T13:57:24.608Z,99.90
2022-09-03T14:00:12.698Z,99.90
2022-09-03T14:02:49.251Z,99.90
2022-09-03T14:05:49.142Z,99.90
2022-09-03T14:08:30.994Z,99.90
2022-09-03T14:11:28.656Z,99.90
2022-09-03T14:14:23.534Z,99.90
2022-09-03T14:17:05.053Z,99.90
2022-09-03T14:19:47.979Z,99.90
2022-09-03T14:22:45.146Z,99.90
2022-09-03T14:25:19.852Z,99.90
2022-09-03T14:28:20.402Z,99.90
2022-09-03T14:31:09.164Z,99.90
2022-09-03T14:34:17.864Z,99.90
2022-09-03T14:37:02.681Z,99.90
2022-09-03T14:39:55.229Z,99.90
2022-09-03T14:42:55.532Z,99.90
2022-09-03T14:45:56.140Z,99.90
2022-09-03T14:49:05.838Z,99.90
2022-09-03T14:52:12.664Z,99.90
2022-09-03T14:55:05.629Z,99.90
2022-09-03T14:58:49.296Z,99.90
2022-09-03T15:01:29.382Z,99.90
2022-09-03T15:04:18.783Z,99.90
2022-09-03T15:07:18.967Z,99.90
2022-09-03T15:10:20.504Z,99.90
2022-09-03T15:13:17.730Z,99.90
2022-09-03T15:16:07.537Z,99.90
2022-09-03T15:19:18.210Z,99.90
2022-09-03T15:22:32.124Z,99.90
2022-09-03T15:25:32.028Z,99.90
2022-09-03T15:28:41.168Z,99.90
2022-09-03T15:31:36.300Z,99.90
2022-09-03T15:34:42.981Z,99.90
2022-09-03T15:37:35.615Z,99.90
2022-09-03T15:40:45.854Z,99.90
2022-09-03T15:43:30.063Z,99.90
2022-09-03T15:46:13.795Z,99.90
2022-09-03T15:49:24.863Z,99.90
2022-09-03T15:52:30.953Z,99.90
2022-09-03T15:55:14.206Z,99.90
2022-09-03T15:58:19.364Z,99.90
2022-09-03T16:01:04.431Z,99.90
2022-09-03T16:03:58.024Z,99.90
2022-09-03T16:06:54.700Z,99.90
2022-09-03T16:13:19.790Z,99.90
2022-09-03T16:16:04.576Z,99.90
2022-09-03T16:19:00.671Z,99.90
2022-09-03T16:22:01.288Z,99.90
2022-09-03T16:24:47.454Z,99.90
2022-09-03T16:27:40.774Z,99.90
2022-09-03T16:30:23.068Z,99.90
2022-09-03T16:33:23.084Z,99.90
2022-09-03T16:36:45.854Z,99.90
2022-09-03T16:39:40.430Z,99.90
2022-09-03T16:42:32.411Z,99.90
2022-09-03T16:45:44.057Z,99.90
2022-09-03T16:48:54.710Z,99.90
2022-09-03T16:51:45.324Z,99.90
2022-09-03T16:54:39.239Z,99.90
2022-09-03T16:57:59.555Z,99.90
2022-09-03T17:01:09.155Z,99.90
2022-09-03T17:04:17.622Z,99.90
2022-09-03T17:07:33.136Z,99.90
2022-09-03T17:10:25.965Z,99.90
2022-09-03T17:13:38.609Z,99.90
2022-09-03T17:16:41.816Z,99.90
2022-09-03T17:19:25.182Z,99.90
2022-09-03T17:22:17.295Z,99.90
2022-09-03T17:25:06.791Z,99.90
2022-09-03T17:27:56.883Z,99.90
2022-09-03T17:30:46.492Z,99.90
2022-09-03T17:33:51.548Z,99.90
2022-09-03T17:36:27.892Z,99.90
2022-09-03T17:39:21.421Z,99.90
2022-09-03T17:42:06.427Z,99.90
2022-09-03T17:45:14.696Z,99.90
2022-09-03T17:48:49.671Z,99.90
2022-09-03T17:51:50.778Z,99.90
2022-09-03T17:54:28.395Z,99.90
2022-09-03T17:57:24.645Z,99.90
2022-09-03T18:00:08.772Z,99.90
2022-09-03T18:02:50.661Z,99.90
2022-09-03T18:05:44.530Z,99.90
2022-09-03T18:08:24.930Z,99.90
2022-09-03T18:11:20.192Z,99.90
2022-09-03T18:14:12.736Z,99.90
2022-09-03T18:17:04.098Z,99.90
2022-09-03T18:20:08.261Z,99.90
2022-09-03T18:23:25.987Z,99.90
2022-09-03T18:26:25.816Z,99.90
2022-09-03T18:29:24.077Z,99.90
2022-09-03T18:32:13.398Z,99.90
2022-09-03T18:35:06.001Z,99.90
2022-09-03T18:37:55.413Z,99.90
2022-09-03T18:41:12.868Z,99.90
2022-09-03T18:44:22.715Z,99.90
2022-09-03T18:48:12.738Z,99.90
2022-09-03T18:51:26.812Z,99.90
2022-09-03T18:55:06.613Z,99.90
2022-09-03T18:58:24.673Z,99.90
2022-09-03T19:01:49.318Z,99.90
2022-09-03T19:05:25.390Z,99.90
2022-09-03T19:08:47.498Z,99.90
2022-09-03T19:12:10.266Z,99.90
2022-09-03T19:15:27.638Z,99.90
2022-09-03T19:18:56.124Z,99.90
2022-09-03T19:21:55.504Z,99.90
2022-09-03T19:24:50.584Z,99.90
2022-09-03T19:28:06.270Z,99.90
2022-09-03T19:31:30.668Z,99.90
2022-09-03T19:34:59.820Z,99.90
2022-09-03T19:38:06.660Z,99.90
2022-09-03T19:41:30.635Z,99.90
2022-09-03T19:44:51.848Z,99.90
2022-09-03T19:48:20.016Z,99.90
2022-09-03T19:51:30.156Z,99.90
2022-09-03T19:54:23.332Z,99.90
2022-09-03T19:57:16.574Z,99.90
2022-09-03T20:00:09.001Z,99.90
2022-09-03T20:03:00.324Z,99.90
2022-09-03T20:05:51.288Z,99.90
2022-09-03T20:08:42.833Z,99.90
2022-09-03T20:11:23.570Z,99.90
2022-09-03T20:14:13.651Z,99.90
2022-09-03T20:17:15.249Z,99.90
2022-09-03T20:20:10.606Z,99.90
2022-09-03T20:23:01.204Z,99.90
2022-09-03T20:26:18.714Z,99.90
2022-09-03T20:29:11.232Z,99.90
2022-09-03T20:32:11.846Z,99.90
2022-09-03T20:35:19.511Z,99.90
2022-09-03T20:38:20.759Z,99.90
2022-09-03T20:41:31.733Z,99.90
2022-09-03T20:44:47.298Z,99.90
2022-09-03T20:48:08.742Z,99.90
2022-09-03T20:51:22.745Z,99.90
2022-09-03T20:54:09.570Z,99.90
2022-09-03T20:57:05.741Z,99.90
2022-09-03T21:00:00.839Z,99.90
2022-09-03T21:03:03.660Z,99.90
2022-09-03T21:05:58.756Z,99.90
2022-09-03T21:08:46.254Z,99.90
2022-09-03T21:11:48.409Z,99.90
2022-09-03T21:14:35.488Z,99.90
2022-09-03T21:17:28.213Z,99.90
2022-09-03T21:20:23.255Z,99.90
2022-09-03T21:23:22.003Z,99.90
2022-09-03T21:26:14.997Z,99.90
2022-09-03T21:29:10.759Z,99.90
2022-09-03T21:31:53.792Z,99.90
2022-09-03T21:35:08.197Z,99.90
2022-09-03T21:37:42.831Z,99.90
2022-09-03T21:40:19.896Z,99.90
2022-09-03T21:43:18.312Z,99.90
2022-09-03T21:45:58.707Z,99.90
2022-09-03T21:48:44.251Z,99.90
2022-09-03T21:51:47.103Z,99.90
2022-09-03T21:54:28.930Z,99.90
2022-09-03T21:57:47.538Z,99.90
2022-09-03T22:00:32.448Z,99.90
2022-09-03T22:03:06.518Z,99.90
2022-09-03T22:06:06.787Z,99.90
2022-09-03T22:08:49.963Z,99.90
2022-09-03T22:11:44.123Z,99.90
2022-09-03T22:14:17.626Z,99.90
2022-09-03T22:17:04.500Z,99.90
2022-09-03T22:19:37.636Z,99.90
2022-09-03T22:22:22.620Z,99.90
2022-09-03T22:25:09.667Z,99.90
2022-09-03T22:27:54.512Z,99.90
2022-09-03T22:30:25.797Z,99.90
2022-09-03T22:33:30.233Z,99.90
2022-09-03T22:36:16.568Z,99.90
2022-09-03T22:38:58.591Z,99.90
2022-09-03T22:41:50.864Z,99.90
2022-09-03T22:44:30.517Z,99.90
2022-09-03T22:47:18.236Z,99.90
2022-09-03T22:50:18.555Z,99.90
2022-09-03T22:53:37.034Z,99.90
2022-09-03T22:56:11.976Z,99.90
2022-09-03T22:58:51.795Z,99.90
2022-09-03T23:01:28.873Z,99.90
2022-09-03T23:04:17.021Z,99.90
2022-09-03T23:06:57.273Z,99.90
2022-09-03T23:09:35.503Z,99.90
2022-09-03T23:12:21.812Z,99.90
2022-09-03T23:14:57.575Z,99.90
2022-09-03T23:20:21.199Z,99.90
2022-09-03T23:23:03.482Z,99.90
2022-09-03T23:25:42.067Z,99.90
2022-09-03T23:28:36.630Z,99.90
2022-09-03T23:31:24.782Z,99.90
2022-09-03T23:33:56.123Z,99.90
2022-09-03T23:37:32.914Z,99.90
2022-09-03T23:40:10.859Z,99.90
2022-09-03T23:43:43.931Z,99.90
2022-09-03T23:46:41.916Z,99.90
2022-09-03T23:49:40.178Z,99.90
2022-09-03T23:52:53.035Z,99.90
2022-09-03T23:56:01.973Z,99.90
2022-09-03T23:59:25.168Z,99.90
